Time;durP1;ratioP1;P1;durP2;ratioP2;P2;SDS_P1;SDS_P2;PMS_P1;PMS_P2;Temp;Humidity;BMP_temperature;BMP_pressure;BME280_temperature;BME280_humidity;BME280_pressure;Samples;Min_cycle;Max_cycle;Signal;HPM_P1;HPM_P2
2023/12/19 00:01:32;;;;;;;29.90;12.40;;;;;;;-128.00;-1.00;-1.00;100030;1283;1056494;-32
2023/12/19 00:03:58;;;;;;;32.00;10.90;;;;;;;-128.00;-1.00;-1.00;99981;1283;1004663;-32
2023/12/19 00:06:23;;;;;;;35.80;13.20;;;;;;;-128.00;-1.00;-1.00;100009;1282;1004782;-30
2023/12/19 00:08:49;;;;;;;33.30;13.20;;;;;;;-128.00;-1.00;-1.00;99998;1283;1004645;-31
2023/12/19 00:11:15;;;;;;;28.40;11.50;;;;;;;-128.00;-1.00;-1.00;100044;1282;1004786;-31
2023/12/19 00:13:40;;;;;;;28.30;11.60;;;;;;;-128.00;-1.00;-1.00;100025;1282;1059365;-35
2023/12/19 00:16:06;;;;;;;36.50;13.60;;;;;;;-128.00;-1.00;-1.00;100141;1282;1004797;-32
2023/12/19 00:18:32;;;;;;;31.90;11.70;;;;;;;-128.00;-1.00;-1.00;100071;1288;1003857;-32
2023/12/19 00:20:57;;;;;;;35.20;12.90;;;;;;;-128.00;-1.00;-1.00;100106;1288;1004345;-32
2023/12/19 00:23:23;;;;;;;40.20;13.90;;;;;;;-128.00;-1.00;-1.00;100037;1282;1005474;-32
2023/12/19 00:25:49;;;;;;;31.90;13.80;;;;;;;-128.00;-1.00;-1.00;100006;1282;1004752;-30
2023/12/19 00:28:14;;;;;;;35.10;13.40;;;;;;;-128.00;-1.00;-1.00;100102;1282;1045904;-30
2023/12/19 00:30:43;;;;;;;37.60;13.50;;;;;;;-128.00;-1.00;-1.00;100142;1283;1005519;-31
2023/12/19 00:33:11;;;;;;;34.50;12.60;;;;;;;-128.00;-1.00;-1.00;100037;1283;1004973;-30
2023/12/19 00:35:37;;;;;;;32.60;12.40;;;;;;;-128.00;-1.00;-1.00;100114;1288;1004881;-30
2023/12/19 00:38:03;;;;;;;29.60;12.00;;;;;;;-128.00;-1.00;-1.00;99966;1288;1004329;-30
2023/12/19 00:40:29;;;;;;;32.70;12.10;;;;;;;-128.00;-1.00;-1.00;100002;1287;1004760;-31
2023/12/19 00:42:54;;;;;;;26.80;10.60;;;;;;;-128.00;-1.00;-1.00;100124;1288;1004485;-31
2023/12/19 00:45:20;;;;;;;28.30;11.90;;;;;;;-128.00;-1.00;-1.00;100029;1283;1060739;-33
2023/12/19 00:47:46;;;;;;;33.60;11.20;;;;;;;-128.00;-1.00;-1.00;100076;1288;1004399;-31
2023/12/19 00:50:15;;;;;;;25.20;11.90;;;;;;;-128.00;-1.00;-1.00;100143;1283;1004448;-31
2023/12/19 00:52:42;;;;;;;29.50;11.70;;;;;;;-128.00;-1.00;-1.00;100008;1287;1045461;-33
2023/12/19 00:55:08;;;;;;;31.40;12.30;;;;;;;-128.00;-1.00;-1.00;100086;1282;1004736;-31
2023/12/19 00:57:33;;;;;;;29.80;12.30;;;;;;;-128.00;-1.00;-1.00;100084;1288;1004734;-31
2023/12/19 00:59:59;;;;;;;34.70;13.80;;;;;;;-128.00;-1.00;-1.00;100112;1283;1004615;-32
2023/12/19 01:02:24;;;;;;;33.30;13.00;;;;;;;-128.00;-1.00;-1.00;100228;1287;1013428;-30
2023/12/19 01:04:50;;;;;;;37.40;13.80;;;;;;;-128.00;-1.00;-1.00;100022;1283;1004277;-32
2023/12/19 01:07:16;;;;;;;;;;;;;;;-128.00;-1.00;-1.00;100037;1283;1004627;-30
2023/12/19 01:09:41;;;;;;;31.90;12.80;;;;;;;-128.00;-1.00;-1.00;99982;1283;1004335;-31
2023/12/19 01:12:07;;;;;;;32.40;13.40;;;;;;;-128.00;-1.00;-1.00;100103;1287;1004555;-34
2023/12/19 01:14:33;;;;;;;39.00;15.40;;;;;;;-128.00;-1.00;-1.00;100048;1288;1004682;-31
2023/12/19 01:16:58;;;;;;;33.70;11.60;;;;;;;-128.00;-1.00;-1.00;100110;1288;1004713;-33
2023/12/19 01:19:24;;;;;;;27.80;9.50;;;;;;;-128.00;-1.00;-1.00;100004;1283;1004277;-29
2023/12/19 01:21:50;;;;;;;23.70;9.30;;;;;;;-128.00;-1.00;-1.00;100117;1282;1060723;-29
2023/12/19 01:24:16;;;;;;;31.10;11.70;;;;;;;-128.00;-1.00;-1.00;100002;1283;1004620;-34
2023/12/19 01:26:42;;;;;;;26.50;10.90;;;;;;;-128.00;-1.00;-1.00;100115;1288;1004466;-32
2023/12/19 01:29:07;;;;;;;25.90;11.20;;;;;;;-128.00;-1.00;-1.00;100026;1283;1062058;-31
2023/12/19 01:31:35;;;;;;;29.50;11.90;;;;;;;-128.00;-1.00;-1.00;100181;1283;1003655;-31
2023/12/19 01:34:01;;;;;;;29.80;11.00;;;;;;;-128.00;-1.00;-1.00;100031;1288;1015012;-32
2023/12/19 01:36:27;;;;;;;29.00;12.00;;;;;;;-128.00;-1.00;-1.00;100116;1283;1004853;-32
2023/12/19 01:38:52;;;;;;;29.10;12.40;;;;;;;-128.00;-1.00;-1.00;100077;1283;1004460;-34
2023/12/19 01:41:18;;;;;;;32.20;13.00;;;;;;;-128.00;-1.00;-1.00;100151;1288;1004450;-32
2023/12/19 01:43:44;;;;;;;31.60;12.90;;;;;;;-128.00;-1.00;-1.00;100024;1288;1004019;-32
2023/12/19 01:46:16;;;;;;;32.10;12.80;;;;;;;-128.00;-1.00;-1.00;100011;1288;1005257;-32
2023/12/19 01:48:42;;;;;;;38.30;14.30;;;;;;;-128.00;-1.00;-1.00;100045;1287;1047145;-32
2023/12/19 01:51:08;;;;;;;35.90;14.20;;;;;;;-128.00;-1.00;-1.00;100026;1283;1004751;-30
2023/12/19 02:34:07;;;;;;;40.60;14.40;;;;;;;3.88;92.25;99982.23;103690;1285;611435;-28
2023/12/19 02:36:33;;;;;;;38.30;14.40;;;;;;;4.01;90.44;99975.09;103722;1280;94665;-31
2023/12/19 02:38:58;;;;;;;38.50;14.30;;;;;;;3.94;90.95;99979.41;103776;1282;59279;-30
2023/12/19 02:41:24;;;;;;;37.10;13.60;;;;;;;-22.42;73.10;79982.79;103004;1285;1002202;-33
2023/12/19 02:43:50;;;;;;;33.90;13.00;;;;;;;-128.00;-1.00;-1.00;100160;1281;1004919;-31
2023/12/19 02:46:15;;;;;;;34.10;13.80;;;;;;;-128.00;-1.00;-1.00;100208;1285;1004920;-33
2023/12/19 02:48:41;;;;;;;34.00;14.30;;;;;;;-128.00;-1.00;-1.00;100143;1285;1004702;-33
2023/12/19 02:51:06;;;;;;;36.10;13.50;;;;;;;-128.00;-1.00;-1.00;100287;1283;1004847;-32
2023/12/19 02:53:32;;;;;;;33.20;14.40;;;;;;;-128.00;-1.00;-1.00;100039;1282;1004532;-31
2023/12/19 02:55:57;;;;;;;35.30;14.40;;;;;;;-128.00;-1.00;-1.00;100111;1281;1004784;-31
2023/12/19 02:58:23;;;;;;;35.60;14.20;;;;;;;-128.00;-1.00;-1.00;100281;1283;1004561;-31
2023/12/19 03:00:48;;;;;;;37.50;15.10;;;;;;;-128.00;-1.00;-1.00;100228;1285;1004814;-33
2023/12/19 03:03:14;;;;;;;34.20;13.50;;;;;;;-128.00;-1.00;-1.00;100179;1283;1004411;-29
2023/12/19 03:05:40;;;;;;;29.60;13.50;;;;;;;-128.00;-1.00;-1.00;100116;1282;1003806;-29
2023/12/19 03:08:05;;;;;;;39.30;14.10;;;;;;;-128.00;-1.00;-1.00;100093;1281;1004256;-30
2023/12/19 03:10:31;;;;;;;34.30;13.90;;;;;;;-128.00;-1.00;-1.00;100096;1285;1045884;-29
2023/12/19 03:12:57;;;;;;;33.30;12.80;;;;;;;-128.00;-1.00;-1.00;100190;1281;1005475;-31
2023/12/19 03:15:24;;;;;;;31.30;13.10;;;;;;;-128.00;-1.00;-1.00;100125;1283;1004674;-33
2023/12/19 03:17:50;;;;;;;37.50;14.00;;;;;;;-128.00;-1.00;-1.00;100220;1285;1058719;-32
2023/12/19 03:20:16;;;;;;;34.90;13.50;;;;;;;-128.00;-1.00;-1.00;100166;1283;1004604;-35
2023/12/19 03:22:41;;;;;;;29.60;12.30;;;;;;;-128.00;-1.00;-1.00;100204;1285;1004791;-33
2023/12/19 03:25:07;;;;;;;37.10;14.30;;;;;;;-128.00;-1.00;-1.00;100279;1283;1060043;-33
2023/12/19 03:27:33;;;;;;;;;;;;;;;-128.00;-1.00;-1.00;100271;1282;1004799;-30
2023/12/19 03:29:58;;;;;;;36.40;13.80;;;;;;;-128.00;-1.00;-1.00;100126;1282;1004086;-31
2023/12/19 03:32:24;;;;;;;35.40;13.90;;;;;;;-128.00;-1.00;-1.00;100135;1285;1045468;-37
2023/12/19 03:34:50;;;;;;;35.90;14.50;;;;;;;-128.00;-1.00;-1.00;100151;1282;1005417;-32
2023/12/19 03:37:15;;;;;;;42.20;14.40;;;;;;;-128.00;-1.00;-1.00;100325;1285;1004946;-30
2023/12/19 03:39:41;;;;;;;28.80;12.90;;;;;;;-128.00;-1.00;-1.00;100108;1282;1059286;-30
2023/12/19 03:42:06;;;;;;;35.50;14.10;;;;;;;-128.00;-1.00;-1.00;100137;1285;1005475;-31
2023/12/19 03:44:32;;;;;;;34.80;14.30;;;;;;;-128.00;-1.00;-1.00;100218;1282;1047440;-31
2023/12/19 03:46:58;;;;;;;31.20;13.40;;;;;;;-128.00;-1.00;-1.00;100193;1282;1004464;-31
2023/12/19 03:49:23;;;;;;;36.10;13.70;;;;;;;-128.00;-1.00;-1.00;100207;1285;1061294;-31
2023/12/19 03:51:49;;;;;;;36.90;14.20;;;;;;;-128.00;-1.00;-1.00;100178;1283;1005015;-32
2023/12/19 03:54:16;;;;;;;32.60;12.90;;;;;;;-128.00;-1.00;-1.00;100164;1283;1005127;-30
2023/12/19 03:56:41;;;;;;;;;;;;;;;-128.00;-1.00;-1.00;100269;1285;1004987;-31
2023/12/19 03:59:10;;;;;;;37.50;13.30;;;;;;;-128.00;-1.00;-1.00;100280;1282;1056806;-31
2023/12/19 04:01:43;;;;;;;34.10;12.70;;;;;;;-128.00;-1.00;-1.00;100109;1283;1059689;-32
2023/12/19 04:04:09;;;;;;;34.50;12.70;;;;;;;-128.00;-1.00;-1.00;100219;1285;1014261;-31
2023/12/19 04:06:34;;;;;;;36.70;13.20;;;;;;;-128.00;-1.00;-1.00;100200;1289;1003609;-34
2023/12/19 04:09:00;;;;;;;;;;;;;;;-128.00;-1.00;-1.00;100171;1283;1005164;-36
2023/12/19 04:11:26;;;;;;;30.40;12.90;;;;;;;-128.00;-1.00;-1.00;100172;1287;1004825;-31
2023/12/19 04:13:51;;;;;;;33.60;13.10;;;;;;;-128.00;-1.00;-1.00;100126;1285;1004632;-31
2023/12/19 04:16:17;;;;;;;35.70;12.40;;;;;;;-128.00;-1.00;-1.00;100113;1285;1045769;-31
2023/12/19 04:18:43;;;;;;;32.10;12.70;;;;;;;-128.00;-1.00;-1.00;100325;1284;1004864;-32
2023/12/19 04:21:08;;;;;;;33.10;13.60;;;;;;;-128.00;-1.00;-1.00;100270;1282;1056187;-36
2023/12/19 04:23:34;;;;;;;33.00;12.60;;;;;;;-128.00;-1.00;-1.00;100143;1285;1004565;-31
2023/12/19 04:26:00;;;;;;;24.60;10.40;;;;;;;-128.00;-1.00;-1.00;100081;1285;1004615;-32
2023/12/19 04:28:25;;;;;;;33.40;11.20;;;;;;;-128.00;-1.00;-1.00;100140;1283;1004697;-31
2023/12/19 04:30:52;;;;;;;26.30;10.80;;;;;;;-128.00;-1.00;-1.00;100149;1282;1004763;-34
2023/12/19 04:33:17;;;;;;;27.00;11.30;;;;;;;-128.00;-1.00;-1.00;100158;1286;1004265;-31
2023/12/19 04:35:43;;;;;;;29.60;11.50;;;;;;;-128.00;-1.00;-1.00;100152;1281;1003851;-30
2023/12/19 04:38:08;;;;;;;28.20;11.10;;;;;;;-128.00;-1.00;-1.00;100142;1292;1005512;-32
2023/12/19 04:40:34;;;;;;;24.40;9.60;;;;;;;-128.00;-1.00;-1.00;100213;1282;1003766;-30
2023/12/19 04:42:59;;;;;;;26.80;9.90;;;;;;;-128.00;-1.00;-1.00;100155;1282;1005089;-32
2023/12/19 04:45:26;;;;;;;18.20;7.80;;;;;;;-128.00;-1.00;-1.00;100271;1286;1059625;-32
2023/12/19 04:47:51;;;;;;;24.50;8.30;;;;;;;-128.00;-1.00;-1.00;100077;1283;1004417;-32
2023/12/19 04:50:17;;;;;;;23.70;9.00;;;;;;;-128.00;-1.00;-1.00;100169;1283;1004159;-31
2023/12/19 04:52:43;;;;;;;17.60;8.30;;;;;;;-128.00;-1.00;-1.00;100128;1283;1004650;-33
2023/12/19 04:55:09;;;;;;;23.70;8.70;;;;;;;-128.00;-1.00;-1.00;100223;1288;1004270;-32
2023/12/19 04:57:34;;;;;;;;;;;;;;;-128.00;-1.00;-1.00;100026;1282;1004758;-31
2023/12/19 05:00:00;;;;;;;20.90;8.20;;;;;;;-128.00;-1.00;-1.00;100149;1289;1003989;-37
2023/12/19 05:02:26;;;;;;;15.10;7.30;;;;;;;-128.00;-1.00;-1.00;100165;1283;1046372;-31
2023/12/19 05:04:51;;;;;;;18.00;7.50;;;;;;;-128.00;-1.00;-1.00;100188;1282;1004488;-31
2023/12/19 05:07:17;;;;;;;21.40;8.20;;;;;;;-128.00;-1.00;-1.00;100074;1283;1059443;-32
2023/12/19 05:09:42;;;;;;;23.40;8.30;;;;;;;-128.00;-1.00;-1.00;100127;1282;1004114;-32
2023/12/19 05:12:08;;;;;;;17.80;7.60;;;;;;;-128.00;-1.00;-1.00;100184;1284;1004878;-30
2023/12/19 05:14:34;;;;;;;18.60;8.00;;;;;;;-128.00;-1.00;-1.00;100302;1282;1060059;-31
2023/12/19 05:17:01;;;;;;;22.10;8.80;;;;;;;-128.00;-1.00;-1.00;100245;1283;1004639;-31
2023/12/19 05:19:27;;;;;;;19.90;7.70;;;;;;;-128.00;-1.00;-1.00;100100;1282;1004317;-33
2023/12/19 05:21:52;;;;;;;22.30;8.30;;;;;;;-128.00;-1.00;-1.00;100137;1287;1004395;-31
2023/12/19 05:24:18;;;;;;;20.10;7.90;;;;;;;-128.00;-1.00;-1.00;100173;1283;1047104;-32
2023/12/19 05:26:44;;;;;;;17.80;7.70;;;;;;;-128.00;-1.00;-1.00;100144;1283;1004885;-32
2023/12/19 05:29:09;;;;;;;17.30;7.50;;;;;;;-128.00;-1.00;-1.00;100081;1285;1004349;-32
2023/12/19 05:31:35;;;;;;;15.70;7.00;;;;;;;-128.00;-1.00;-1.00;100122;1283;1004590;-34
2023/12/19 05:34:00;;;;;;;10.70;5.10;;;;;;;-128.00;-1.00;-1.00;100295;1286;1047368;-31
2023/12/19 05:36:26;;;;;;;17.40;6.70;;;;;;;-128.00;-1.00;-1.00;100132;1285;1004100;-33
2023/12/19 05:38:52;;;;;;;12.80;5.90;;;;;;;-128.00;-1.00;-1.00;100068;1285;1061421;-31
2023/12/19 05:41:17;;;;;;;11.40;5.60;;;;;;;-128.00;-1.00;-1.00;100199;1283;1004519;-31
2023/12/19 05:43:43;;;;;;;11.20;5.20;;;;;;;-128.00;-1.00;-1.00;100122;1283;1047587;-32
2023/12/19 05:46:09;;;;;;;15.80;5.30;;;;;;;-128.00;-1.00;-1.00;100353;1283;1004590;-32
2023/12/19 05:48:35;;;;;;;13.80;5.80;;;;;;;-128.00;-1.00;-1.00;100118;1282;1004766;-34
2023/12/19 05:51:00;;;;;;;11.10;5.30;;;;;;;-128.00;-1.00;-1.00;100193;1282;1004824;-32
2023/12/19 05:53:27;;;;;;;11.40;5.50;;;;;;;-128.00;-1.00;-1.00;100245;1285;1045455;-29
2023/12/19 05:55:53;;;;;;;12.40;5.20;;;;;;;-128.00;-1.00;-1.00;100287;1282;1004482;-31
2023/12/19 05:58:18;;;;;;;14.70;5.40;;;;;;;-128.00;-1.00;-1.00;100177;1282;1004140;-33
2023/12/19 06:00:45;;;;;;;12.50;5.40;;;;;;;-128.00;-1.00;-1.00;100128;1285;1004472;-32
2023/12/19 06:03:11;;;;;;;9.50;5.40;;;;;;;-128.00;-1.00;-1.00;100118;1286;1004420;-32
2023/12/19 06:05:38;;;;;;;12.10;5.10;;;;;;;-128.00;-1.00;-1.00;100110;1285;1004860;-35
2023/12/19 06:08:06;;;;;;;14.50;4.80;;;;;;;-128.00;-1.00;-1.00;100120;1283;1059131;-32
2023/12/19 06:10:31;;;;;;;16.60;5.20;;;;;;;-128.00;-1.00;-1.00;100139;1282;1004547;-33
2023/12/19 06:12:57;;;;;;;12.70;5.60;;;;;;;-128.00;-1.00;-1.00;100143;1285;1004565;-31
2023/12/19 06:15:23;;;;;;;12.20;5.60;;;;;;;-128.00;-1.00;-1.00;100217;1285;1045374;-31
2023/12/19 06:17:49;;;;;;;11.40;5.50;;;;;;;-128.00;-1.00;-1.00;100229;1282;1004521;-31
2023/12/19 06:20:14;;;;;;;;;;;;;;;-128.00;-1.00;-1.00;100163;1281;1004643;-32
2023/12/19 06:22:43;;;;;;;12.30;5.30;;;;;;;-128.00;-1.00;-1.00;100265;1283;1059670;-32
2023/12/19 06:25:09;;;;;;;10.10;5.20;;;;;;;-128.00;-1.00;-1.00;100276;1286;1014118;-31
2023/12/19 06:27:35;;;;;;;14.90;6.00;;;;;;;-128.00;-1.00;-1.00;100166;1283;1004573;-31
2023/12/19 06:30:05;;;;;;;9.00;4.70;;;;;;;-128.00;-1.00;-1.00;100127;1283;1004528;-30
2023/12/19 06:32:31;;;;;;;8.20;4.00;;;;;;;-128.00;-1.00;-1.00;100071;1285;1060134;-30
2023/12/19 06:34:57;;;;;;;11.60;5.00;;;;;;;-128.00;-1.00;-1.00;100213;1283;1004702;-31
2023/12/19 06:37:22;;;;;;;10.60;5.10;;;;;;;-128.00;-1.00;-1.00;100090;1285;1013707;-31
2023/12/19 06:39:48;;;;;;;11.40;5.10;;;;;;;-128.00;-1.00;-1.00;100129;1286;1004692;-35
2023/12/19 06:42:14;;;;;;;11.60;4.80;;;;;;;-128.00;-1.00;-1.00;100246;1283;1004605;-32
2023/12/19 06:44:40;;;;;;;10.90;5.50;;;;;;;-128.00;-1.00;-1.00;100241;1283;1056036;-31
2023/12/19 06:47:05;;;;;;;39.40;14.50;;;;;;;-128.00;-1.00;-1.00;100233;1283;1003807;-31
2023/12/19 06:49:31;;;;;;;29.80;12.70;;;;;;;-128.00;-1.00;-1.00;100158;1283;1004588;-32
2023/12/19 06:51:57;;;;;;;21.70;8.80;;;;;;;-128.00;-1.00;-1.00;100139;1285;1004334;-32
2023/12/19 06:54:22;;;;;;;16.70;7.40;;;;;;;-128.00;-1.00;-1.00;100165;1285;1060669;-32
2023/12/19 06:56:48;;;;;;;15.20;7.40;;;;;;;-128.00;-1.00;-1.00;100175;1283;1004649;-32
2023/12/19 06:59:14;;;;;;;17.20;6.80;;;;;;;-128.00;-1.00;-1.00;100203;1283;1004460;-32
2023/12/19 07:01:40;;;;;;;13.40;6.00;;;;;;;-128.00;-1.00;-1.00;100169;1285;1004358;-39
2023/12/19 07:04:05;;;;;;;13.00;5.90;;;;;;;-128.00;-1.00;-1.00;100030;1283;1004396;-32
2023/12/19 07:06:31;;;;;;;10.40;5.00;;;;;;;-128.00;-1.00;-1.00;100171;1282;1004428;-31
2023/12/19 07:08:56;;;;;;;14.60;5.50;;;;;;;-128.00;-1.00;-1.00;100150;1283;1004585;-30
2023/12/19 07:11:24;;;;;;;11.80;5.10;;;;;;;-128.00;-1.00;-1.00;100234;1282;1004660;-37
2023/12/19 07:13:50;;;;;;;14.70;6.00;;;;;;;-128.00;-1.00;-1.00;100126;1283;1047548;-31
2023/12/19 07:16:17;;;;;;;17.80;6.90;;;;;;;-128.00;-1.00;-1.00;100101;1283;1004476;-30
2023/12/19 07:18:44;;;;;;;18.50;7.70;;;;;;;-128.00;-1.00;-1.00;100171;1283;1004712;-31
2023/12/19 07:21:18;;;;;;;17.80;7.50;;;;;;;-128.00;-1.00;-1.00;100118;1285;1004680;-32
2023/12/19 07:23:43;;;;;;;12.90;5.40;;;;;;;-128.00;-1.00;-1.00;100129;1283;1015332;-32
2023/12/19 07:26:26;;;;;;;10.80;4.60;;;;;;;-128.00;-1.00;-1.00;100113;1283;1004456;-31
2023/12/19 07:28:52;;;;;;;8.80;4.40;;;;;;;-128.00;-1.00;-1.00;100120;1282;1060147;-30
2023/12/19 07:31:23;;;;;;;11.50;5.10;;;;;;;-128.00;-1.00;-1.00;100105;1283;1004797;-31
2023/12/19 07:33:51;;;;;;;9.70;4.00;;;;;;;-128.00;-1.00;-1.00;100145;1283;1059497;-31
2023/12/19 07:36:17;;;;;;;10.30;4.10;;;;;;;-128.00;-1.00;-1.00;100141;1283;1004923;-34
2023/12/19 07:38:43;;;;;;;;;;;;;;;-128.00;-1.00;-1.00;100150;1282;1004479;-34
2023/12/19 07:41:08;;;;;;;7.00;3.60;;;;;;;-128.00;-1.00;-1.00;100177;1283;1004625;-33
2023/12/19 07:43:35;;;;;;;10.80;4.80;;;;;;;-128.00;-1.00;-1.00;100049;1288;1004521;-32
2023/12/19 07:46:03;;;;;;;8.90;3.70;;;;;;;-128.00;-1.00;-1.00;100051;1284;1004605;-33
2023/12/19 07:48:29;;;;;;;13.60;5.00;;;;;;;-128.00;-1.00;-1.00;100174;1282;1004347;-32
2023/12/19 07:50:54;;;;;;;9.40;3.60;;;;;;;-128.00;-1.00;-1.00;100141;1285;1004647;-31
2023/12/19 07:53:20;;;;;;;10.30;4.60;;;;;;;-128.00;-1.00;-1.00;100131;1283;1003759;-32
2023/12/19 07:55:45;;;;;;;12.40;5.10;;;;;;;-128.00;-1.00;-1.00;100158;1281;1004658;-32
2023/12/19 07:58:12;;;;;;;11.40;4.60;;;;;;;-128.00;-1.00;-1.00;100336;1283;1014728;-31
2023/12/19 08:00:37;;;;;;;10.70;4.50;;;;;;;-128.00;-1.00;-1.00;100163;1285;1004467;-31
2023/12/19 08:03:03;;;;;;;11.20;4.90;;;;;;;-128.00;-1.00;-1.00;100162;1282;1004695;-31
2023/12/19 08:05:29;;;;;;;9.40;4.20;;;;;;;-128.00;-1.00;-1.00;100123;1285;1056548;-33
2023/12/19 08:07:54;;;;;;;9.30;3.80;;;;;;;-128.00;-1.00;-1.00;100247;1283;1003914;-33
2023/12/19 08:10:20;;;;;;;10.70;4.10;;;;;;;-128.00;-1.00;-1.00;100194;1285;1004208;-32
2023/12/19 08:12:45;;;;;;;6.60;3.30;;;;;;;-128.00;-1.00;-1.00;100103;1282;1004392;-30
2023/12/19 08:15:12;;;;;;;8.60;4.60;;;;;;;-128.00;-1.00;-1.00;100186;1282;1004534;-31
2023/12/19 08:17:38;;;;;;;;;;;;;;;-128.00;-1.00;-1.00;100053;1284;1003748;-32
2023/12/19 08:20:05;;;;;;;9.70;4.50;;;;;;;-128.00;-1.00;-1.00;100176;1285;1004014;-30
2023/12/19 08:22:30;;;;;;;13.70;4.40;;;;;;;-128.00;-1.00;-1.00;100082;1288;1004378;-30
2023/12/19 08:24:56;;;;;;;9.30;4.30;;;;;;;-128.00;-1.00;-1.00;100118;1283;1004659;-32
2023/12/19 08:27:26;;;;;;;9.70;4.50;;;;;;;-128.00;-1.00;-1.00;100312;1282;1004426;-31
2023/12/19 08:29:52;;;;;;;13.90;5.40;;;;;;;-128.00;-1.00;-1.00;100108;1282;1059367;-31
2023/12/19 08:32:17;;;;;;;8.00;4.30;;;;;;;-128.00;-1.00;-1.00;100113;1285;1004806;-32
2023/12/19 08:34:43;;;;;;;13.80;5.30;;;;;;;-128.00;-1.00;-1.00;100166;1282;1046996;-33
2023/12/19 08:37:09;;;;;;;8.20;4.70;;;;;;;-128.00;-1.00;-1.00;100089;1282;1005049;-33
2023/12/19 08:39:35;;;;;;;10.10;4.90;;;;;;;-128.00;-1.00;-1.00;100130;1283;1004581;-31
2023/12/19 08:42:00;;;;;;;12.10;5.70;;;;;;;-128.00;-1.00;-1.00;100148;1283;1004455;-32
2023/12/19 08:44:29;;;;;;;11.80;5.40;;;;;;;-128.00;-1.00;-1.00;100159;1285;1045671;-32
2023/12/19 08:46:55;;;;;;;13.60;6.20;;;;;;;-128.00;-1.00;-1.00;100065;1283;1046828;-33
2023/12/19 08:49:21;;;;;;;10.50;4.90;;;;;;;-128.00;-1.00;-1.00;100135;1283;1004586;-32
2023/12/19 08:51:48;;;;;;;10.70;5.00;;;;;;;-128.00;-1.00;-1.00;100182;1282;1005487;-32
2023/12/19 08:54:14;;;;;;;12.80;5.60;;;;;;;-128.00;-1.00;-1.00;100058;1282;1004379;-31
2023/12/19 08:56:41;;;;;;;12.60;5.40;;;;;;;-128.00;-1.00;-1.00;100093;1283;1004642;-32
2023/12/19 08:59:07;;;;;;;10.40;5.10;;;;;;;-128.00;-1.00;-1.00;100192;1283;1045934;-31
2023/12/19 09:01:33;;;;;;;12.30;5.50;;;;;;;-128.00;-1.00;-1.00;99973;1288;1004816;-31
2023/12/19 09:04:00;;;;;;;12.60;5.40;;;;;;;-128.00;-1.00;-1.00;100143;1285;1005086;-33
2023/12/19 09:06:26;;;;;;;12.30;4.80;;;;;;;-128.00;-1.00;-1.00;100109;1283;1015354;-32
2023/12/19 09:08:52;;;;;;;8.90;4.40;;;;;;;-128.00;-1.00;-1.00;100054;1288;1004854;-33
2023/12/19 09:11:18;;;;;;;10.60;4.90;;;;;;;-128.00;-1.00;-1.00;100089;1281;1004326;-33
2023/12/19 09:13:44;;;;;;;10.50;4.90;;;;;;;-128.00;-1.00;-1.00;100138;1282;1003654;-32
2023/12/19 09:16:09;;;;;;;6.40;4.10;;;;;;;-128.00;-1.00;-1.00;100096;1285;1059135;-34
2023/12/19 09:18:35;;;;;;;10.90;3.50;;;;;;;-128.00;-1.00;-1.00;100149;1282;1004032;-33
2023/12/19 09:21:01;;;;;;;;;;;;;;;-128.00;-1.00;-1.00;100129;1286;1004816;-33
2023/12/19 09:23:26;;;;;;;8.80;4.30;;;;;;;-128.00;-1.00;-1.00;100079;1285;1063619;-30
2023/12/19 09:25:53;;;;;;;9.70;4.40;;;;;;;-128.00;-1.00;-1.00;100167;1282;1005387;-32
2023/12/19 09:28:19;;;;;;;11.20;3.70;;;;;;;-128.00;-1.00;-1.00;100114;1283;1015030;-33
2023/12/19 09:30:45;;;;;;;7.90;4.20;;;;;;;-128.00;-1.00;-1.00;100172;1285;1003854;-34
2023/12/19 09:33:11;;;;;;;8.30;4.70;;;;;;;-128.00;-1.00;-1.00;100316;1282;1005155;-33
2023/12/19 09:35:36;;;;;;;8.30;4.50;;;;;;;-128.00;-1.00;-1.00;100109;1282;1056382;-33
2023/12/19 09:38:04;;;;;;;12.10;5.00;;;;;;;-128.00;-1.00;-1.00;100165;1283;1004485;-31
2023/12/19 09:40:29;;;;;;;10.80;5.20;;;;;;;-128.00;-1.00;-1.00;100071;1285;1044141;-33
2023/12/19 09:42:56;;;;;;;11.70;5.10;;;;;;;-128.00;-1.00;-1.00;100135;1283;1003983;-31
2023/12/19 09:45:22;;;;;;;14.40;5.80;;;;;;;-128.00;-1.00;-1.00;100093;1282;1004857;-32
2023/12/19 09:47:53;;;;;;;;;;;;;;;-128.00;-1.00;-1.00;100138;1283;1004610;-31
2023/12/19 09:50:20;;;;;;;10.40;5.80;;;;;;;-128.00;-1.00;-1.00;100120;1282;1014652;-31
2023/12/19 09:52:46;;;;;;;9.90;5.20;;;;;;;-128.00;-1.00;-1.00;100206;1285;1004703;-33
2023/12/19 09:55:11;;;;;;;11.20;5.50;;;;;;;-128.00;-1.00;-1.00;100165;1283;1005595;-33
2023/12/19 09:57:37;;;;;;;9.80;5.20;;;;;;;-128.00;-1.00;-1.00;100189;1283;1005353;-33
2023/12/19 10:00:08;;;;;;;13.50;6.10;;;;;;;-128.00;-1.00;-1.00;100224;1285;1059462;-31
2023/12/19 10:02:34;;;;;;;12.00;5.40;;;;;;;-128.00;-1.00;-1.00;100080;1283;1014778;-31
2023/12/19 10:04:59;;;;;;;11.60;4.70;;;;;;;-128.00;-1.00;-1.00;100087;1282;1003704;-33
2023/12/19 10:07:29;;;;;;;11.10;5.20;;;;;;;-128.00;-1.00;-1.00;100168;1282;1004598;-34
2023/12/19 10:09:55;;;;;;;11.10;5.00;;;;;;;-128.00;-1.00;-1.00;100168;1282;1057234;-32
2023/12/19 10:12:21;;;;;;;10.60;5.40;;;;;;;-128.00;-1.00;-1.00;100128;1283;1004424;-31
2023/12/19 10:14:47;;;;;;;12.90;5.50;;;;;;;-128.00;-1.00;-1.00;100127;1283;1004262;-32
2023/12/19 10:17:15;;;;;;;10.00;5.10;;;;;;;-128.00;-1.00;-1.00;100089;1285;1004024;-31
2023/12/19 10:19:40;;;;;;;9.30;4.50;;;;;;;-128.00;-1.00;-1.00;100103;1282;1004052;-31
2023/12/19 10:22:16;;;;;;;;;;;;;;;-128.00;-1.00;-1.00;100191;1282;1004651;-31
2023/12/19 10:24:42;;;;;;;8.80;4.20;;;;;;;-128.00;-1.00;-1.00;100130;1283;1056839;-33
2023/12/19 10:27:08;;;;;;;8.80;3.90;;;;;;;-128.00;-1.00;-1.00;100075;1281;1004636;-32
2023/12/19 10:32:13;;;;;;;7.70;3.40;;;;;;;-128.00;-1.00;-1.00;99993;1283;1047017;-33
2023/12/19 10:34:40;;;;;;;7.60;3.70;;;;;;;-128.00;-1.00;-1.00;100194;1282;1060677;-32
2023/12/19 10:37:10;;;;;;;5.60;3.50;;;;;;;-128.00;-1.00;-1.00;100091;1283;1005404;-35
2023/12/19 10:39:36;;;;;;;7.90;4.10;;;;;;;-128.00;-1.00;-1.00;100086;1282;1059190;-32
2023/12/19 10:42:06;;;;;;;5.90;2.70;;;;;;;-128.00;-1.00;-1.00;100113;1283;1005030;-31
2023/12/19 10:44:32;;;;;;;7.30;3.20;;;;;;;-128.00;-1.00;-1.00;100061;1283;1046834;-32
2023/12/19 10:47:01;;;;;;;7.30;3.50;;;;;;;-128.00;-1.00;-1.00;100124;1283;1004621;-33
2023/12/19 10:49:26;;;;;;;6.00;2.80;;;;;;;-128.00;-1.00;-1.00;100125;1282;1004255;-32
2023/12/19 10:51:53;;;;;;;4.90;2.50;;;;;;;-128.00;-1.00;-1.00;100111;1282;1005139;-32
2023/12/19 10:54:19;;;;;;;5.60;3.00;;;;;;;-128.00;-1.00;-1.00;100184;1281;1014289;-33
2023/12/19 10:57:06;;;;;;;3.60;2.30;;;;;;;-128.00;-1.00;-1.00;100348;1282;1004645;-32
2023/12/19 10:59:41;;;;;;;2.00;1.10;;;;;;;-128.00;-1.00;-1.00;100237;1283;1047267;-34
2023/12/19 11:02:20;;;;;;;3.40;1.50;;;;;;;-128.00;-1.00;-1.00;100126;1283;1060356;-32
2023/12/19 11:04:51;;;;;;;5.80;1.80;;;;;;;-128.00;-1.00;-1.00;100104;1283;1056136;-32
2023/12/19 11:07:18;;;;;;;6.90;1.70;;;;;;;-128.00;-1.00;-1.00;100165;1283;1059921;-32
2023/12/19 11:09:47;;;;;;;4.20;1.80;;;;;;;-128.00;-1.00;-1.00;100177;1281;1005237;-33
2023/12/19 11:12:13;;;;;;;3.10;1.50;;;;;;;-128.00;-1.00;-1.00;100178;1285;1044728;-31
2023/12/19 11:14:40;;;;;;;5.00;1.70;;;;;;;-128.00;-1.00;-1.00;100164;1282;1004437;-31
2023/12/19 11:17:16;;;;;;;3.20;1.40;;;;;;;-128.00;-1.00;-1.00;100379;1282;1004430;-33
2023/12/19 11:19:45;;;;;;;4.20;1.50;;;;;;;-128.00;-1.00;-1.00;100081;1282;1056686;-32
2023/12/19 11:22:26;;;;;;;4.50;1.50;;;;;;;-128.00;-1.00;-1.00;100149;1285;1058717;-33
2023/12/19 11:25:15;;;;;;;3.20;1.70;;;;;;;-128.00;-1.00;-1.00;100094;1282;1014265;-31
2023/12/19 11:27:43;;;;;;;5.60;1.90;;;;;;;-128.00;-1.00;-1.00;100158;1282;1047728;-31
2023/12/19 11:30:33;;;;;;;4.80;1.80;;;;;;;-128.00;-1.00;-1.00;100247;1282;1004330;-33
2023/12/19 11:32:58;;;;;;;3.20;1.60;;;;;;;-128.00;-1.00;-1.00;100156;1282;1060716;-33
2023/12/19 11:35:28;;;;;;;4.90;1.80;;;;;;;-128.00;-1.00;-1.00;100099;1282;1003509;-31
2023/12/19 11:38:21;;;;;;;4.60;1.50;;;;;;;-128.00;-1.00;-1.00;100160;1283;1059093;-32
2023/12/19 11:40:48;;;;;;;4.60;1.50;;;;;;;-128.00;-1.00;-1.00;100184;1282;1014352;-32
2023/12/19 11:43:45;;;;;;;4.90;1.20;;;;;;;-128.00;-1.00;-1.00;100153;1285;1004431;-32
2023/12/19 11:46:16;;;;;;;2.90;1.10;;;;;;;-128.00;-1.00;-1.00;100159;1283;1046909;-34
2023/12/19 11:48:44;;;;;;;2.90;1.40;;;;;;;-128.00;-1.00;-1.00;100233;1282;1061409;-36
2023/12/19 11:51:11;;;;;;;3.90;1.30;;;;;;;-128.00;-1.00;-1.00;100229;1282;1003258;-34
2023/12/19 11:53:41;;;;;;;2.50;1.10;;;;;;;-128.00;-1.00;-1.00;100122;1282;1003816;-32